createdAt,value
2023-02-11T00:03:10.766Z,1.90
2023-02-11T00:08:16.992Z,1.89
2023-02-11T00:13:17.715Z,1.88
2023-02-11T00:18:18.496Z,1.95
2023-02-11T00:23:20.513Z,2.14
2023-02-11T00:28:21.179Z,2.25
2023-02-11T00:33:21.884Z,2.36
2023-02-11T00:38:23.957Z,2.57
2023-02-11T00:43:24.618Z,2.55
2023-02-11T00:48:25.277Z,2.57
2023-02-11T00:53:27.701Z,2.58
2023-02-11T00:58:29.191Z,2.62
2023-02-11T01:03:30.107Z,2.83
2023-02-11T01:08:32.345Z,2.96
2023-02-11T01:13:37.340Z,3.01
2023-02-11T01:18:39.187Z,3.09
2023-02-11T01:23:41.261Z,2.99
2023-02-11T01:28:42.017Z,3.16
2023-02-11T01:33:42.691Z,3.39
2023-02-11T01:38:45.630Z,3.31
2023-02-11T01:43:48.638Z,3.48
2023-02-11T01:48:53.538Z,3.43
2023-02-11T01:54:16.102Z,3.45
2023-02-11T01:59:23.615Z,3.39
2023-02-11T02:04:27.423Z,3.51
2023-02-11T02:09:38.730Z,3.55
2023-02-11T02:14:41.416Z,3.54
2023-02-11T02:20:22.137Z,3.53
2023-02-11T02:25:45.229Z,3.52
2023-02-11T02:31:14.971Z,3.63
2023-02-11T02:36:29.400Z,3.69
2023-02-11T02:41:32.366Z,3.74
2023-02-11T02:46:35.327Z,3.91
2023-02-11T02:51:53.615Z,3.91
2023-02-11T02:57:00.498Z,3.99
2023-02-11T03:02:10.916Z,3.97
2023-02-11T03:07:22.058Z,4.00
2023-02-11T03:12:24.448Z,4.15
2023-02-11T03:17:27.283Z,4.21
2023-02-11T03:22:35.985Z,4.29
2023-02-11T03:27:42.479Z,4.46
2023-02-11T03:32:49.913Z,4.47
2023-02-11T03:37:55.042Z,4.50
2023-02-11T03:42:59.510Z,4.43
2023-02-11T03:48:03.206Z,4.52
2023-02-11T03:53:05.919Z,4.49
2023-02-11T03:58:06.954Z,4.52
2023-02-11T04:03:08.360Z,4.42
2023-02-11T04:08:10.517Z,4.61
2023-02-11T04:13:11.228Z,4.62
2023-02-11T04:18:11.868Z,4.64
2023-02-11T04:23:14.031Z,4.67
2023-02-11T04:28:14.713Z,4.61
2023-02-11T04:33:15.431Z,4.68
2023-02-11T04:38:17.560Z,4.72
2023-02-11T04:43:18.285Z,4.74
2023-02-11T04:48:18.955Z,4.69
2023-02-11T04:53:21.225Z,4.62
2023-02-11T04:58:22.198Z,4.59
2023-02-11T05:03:22.987Z,4.58
2023-02-11T05:08:24.956Z,4.51
2023-02-11T05:13:25.769Z,4.33
2023-02-11T05:18:26.516Z,4.15
2023-02-11T05:23:28.507Z,4.07
2023-02-11T05:28:29.339Z,4.02
2023-02-11T05:33:30.077Z,4.06
2023-02-11T05:38:32.108Z,4.03
2023-02-11T05:43:35.112Z,4.02
2023-02-11T05:48:35.977Z,3.92
2023-02-11T05:53:38.092Z,3.93
2023-02-11T05:58:39.689Z,3.96
2023-02-11T06:03:40.385Z,3.98
2023-02-11T06:08:43.054Z,3.94
2023-02-11T06:13:44.111Z,3.87
2023-02-11T06:18:44.763Z,3.98
2023-02-11T06:23:46.785Z,3.95
2023-02-11T06:28:47.431Z,3.93
2023-02-11T06:33:49.835Z,3.99
2023-02-11T06:38:52.304Z,3.94
2023-02-11T06:43:53.774Z,4.09
2023-02-11T06:48:54.514Z,4.08
2023-02-11T06:53:56.502Z,4.13
2023-02-11T06:58:57.951Z,4.20
2023-02-11T07:03:58.600Z,4.13
2023-02-11T07:09:00.890Z,4.23
2023-02-11T07:14:04.706Z,4.20
2023-02-11T07:19:05.522Z,4.20
2023-02-11T07:24:11.107Z,4.20
2023-02-11T07:29:12.094Z,4.27
2023-02-11T07:34:12.818Z,4.16
2023-02-11T07:39:14.835Z,4.16
2023-02-11T07:44:15.677Z,4.23
2023-02-11T07:49:16.439Z,4.22
2023-02-11T07:54:18.812Z,4.27
2023-02-11T07:59:19.783Z,4.14
2023-02-11T08:04:20.449Z,4.22
2023-02-11T08:09:22.470Z,4.20
2023-02-11T08:14:25.224Z,4.29
2023-02-11T08:19:26.893Z,4.39
2023-02-11T08:24:29.056Z,4.51
2023-02-11T08:29:29.814Z,4.51
2023-02-11T08:34:30.628Z,4.58
2023-02-11T08:39:32.760Z,4.54
2023-02-11T08:44:33.423Z,4.60
2023-02-11T08:49:34.212Z,4.69
2023-02-11T08:54:36.219Z,4.72
2023-02-11T08:59:37.137Z,4.79
2023-02-11T09:04:37.816Z,4.72
2023-02-11T09:09:40.015Z,4.83
2023-02-11T09:14:41.997Z,4.91
2023-02-11T09:19:42.762Z,4.95
2023-02-11T09:24:44.827Z,4.97
2023-02-11T09:29:45.620Z,4.95
2023-02-11T09:34:46.364Z,4.88
2023-02-11T09:39:48.610Z,4.89
2023-02-11T09:44:50.078Z,4.91
2023-02-11T09:49:54.663Z,4.90
2023-02-11T09:54:59.041Z,5.04
2023-02-11T09:59:59.813Z,4.97
2023-02-11T10:05:14.452Z,4.99
2023-02-11T10:10:28.210Z,5.19
2023-02-11T10:15:43.405Z,5.34
2023-02-11T10:20:52.016Z,5.23
2023-02-11T10:25:57.094Z,5.44
2023-02-11T10:31:00.761Z,5.36
2023-02-11T10:36:01.768Z,5.36
2023-02-11T10:41:03.905Z,5.48
2023-02-11T10:46:06.587Z,5.64
2023-02-11T10:51:18.621Z,5.60
2023-02-11T10:56:28.076Z,5.66
2023-02-11T11:01:44.416Z,5.64
2023-02-11T11:06:45.314Z,5.80
2023-02-11T11:11:54.496Z,5.78
2023-02-11T11:16:56.196Z,5.82
2023-02-11T11:21:57.711Z,5.91
2023-02-11T11:27:02.409Z,6.01
2023-02-11T11:32:06.533Z,5.97
2023-02-11T11:37:13.004Z,5.99
2023-02-11T11:42:29.504Z,6.03
2023-02-11T11:47:35.396Z,6.11
2023-02-11T11:52:42.619Z,6.15
2023-02-11T11:57:45.117Z,6.15
2023-02-11T12:03:09.942Z,6.15
2023-02-11T12:08:22.458Z,6.22
2023-02-11T12:13:40.645Z,6.18
2023-02-11T12:19:07.814Z,6.20
2023-02-11T12:24:21.692Z,6.10
2023-02-11T12:29:33.032Z,6.08
2023-02-11T12:35:00.223Z,6.07
2023-02-11T12:40:13.540Z,5.94
2023-02-11T12:45:28.265Z,5.92
2023-02-11T12:50:35.979Z,5.89
2023-02-11T12:55:41.076Z,5.81
2023-02-11T13:00:49.589Z,5.82
2023-02-11T13:05:55.014Z,5.85
2023-02-11T13:10:58.805Z,5.88
2023-02-11T13:16:06.680Z,5.95
2023-02-11T13:21:23.175Z,5.86
2023-02-11T13:26:31.980Z,5.93
2023-02-11T13:31:34.258Z,5.94
2023-02-11T13:36:35.245Z,5.99
2023-02-11T13:41:39.794Z,5.96
2023-02-11T13:46:55.665Z,6.08
2023-02-11T13:51:57.663Z,6.16
2023-02-11T13:57:24.576Z,6.14
2023-02-11T14:02:48.283Z,6.21
2023-02-11T14:08:33.090Z,6.19
2023-02-11T14:13:34.847Z,6.11
2023-02-11T14:19:04.146Z,6.06
2023-02-11T14:24:47.921Z,6.06
2023-02-11T14:29:59.954Z,6.00
2023-02-11T14:35:10.556Z,6.00
2023-02-11T14:40:19.712Z,6.15
2023-02-11T14:45:24.902Z,6.13
2023-02-11T14:50:29.079Z,6.14
2023-02-11T14:55:33.173Z,6.18
2023-02-11T15:00:34.437Z,6.15
2023-02-11T15:05:37.276Z,6.21
2023-02-11T15:10:43.614Z,6.24
2023-02-11T15:15:46.585Z,6.21
2023-02-11T15:20:49.636Z,6.18
2023-02-11T15:25:53.031Z,6.27
2023-02-11T15:31:02.426Z,6.30
2023-02-11T15:36:05.208Z,6.35
2023-02-11T15:41:07.563Z,6.36
2023-02-11T15:46:12.248Z,6.25
2023-02-11T15:51:29.469Z,6.30
2023-02-11T15:56:33.266Z,6.23
2023-02-11T16:01:35.887Z,6.27
2023-02-11T16:06:40.561Z,6.17
2023-02-11T16:11:56.648Z,6.15
2023-02-11T16:17:00.903Z,6.11
2023-02-11T16:22:10.324Z,6.03
2023-02-11T16:27:22.315Z,5.99
2023-02-11T16:32:25.503Z,5.87
2023-02-11T16:37:28.264Z,5.77
2023-02-11T16:42:29.020Z,5.62
2023-02-11T16:47:32.104Z,5.53
2023-02-11T16:52:34.858Z,5.42
2023-02-11T16:57:35.546Z,5.32
2023-02-11T17:02:38.286Z,5.29
2023-02-11T17:07:40.460Z,5.23
2023-02-11T17:12:41.213Z,5.15
2023-02-11T17:17:41.931Z,5.11
2023-02-11T17:22:44.166Z,5.13
2023-02-11T17:27:45.520Z,5.08
2023-02-11T17:32:47.288Z,5.06
2023-02-11T17:37:49.500Z,5.15
2023-02-11T17:42:51.275Z,5.23
2023-02-11T17:47:52.339Z,5.34
2023-02-11T17:52:54.956Z,5.32
2023-02-11T17:57:56.065Z,5.35
2023-02-11T18:02:57.806Z,5.33
2023-02-11T18:07:59.857Z,5.27
2023-02-11T18:13:00.828Z,5.19
2023-02-11T18:18:01.651Z,5.17
2023-02-11T18:23:04.325Z,5.17
2023-02-11T18:28:05.218Z,5.17
2023-02-11T18:33:08.864Z,5.12
2023-02-11T18:38:10.965Z,5.08
2023-02-11T18:43:11.681Z,5.09
2023-02-11T18:48:13.074Z,5.07
2023-02-11T18:53:16.137Z,5.15
2023-02-11T18:58:17.930Z,5.13
2023-02-11T19:03:18.742Z,5.14
2023-02-11T19:08:20.792Z,5.14
2023-02-11T19:13:21.459Z,5.09
2023-02-11T19:18:22.245Z,5.12
2023-02-11T19:23:24.300Z,5.17
2023-02-11T19:28:25.170Z,5.22
2023-02-11T19:33:26.218Z,5.21
2023-02-11T19:38:28.318Z,5.20
2023-02-11T19:43:29.268Z,5.20
2023-02-11T19:48:30.139Z,5.26
2023-02-11T19:53:32.378Z,5.26
2023-02-11T19:58:33.069Z,5.31
2023-02-11T20:03:33.926Z,5.33
2023-02-11T20:08:36.642Z,5.32
2023-02-11T20:13:37.815Z,5.26
2023-02-11T20:18:39.501Z,5.24
2023-02-11T20:23:41.647Z,5.27
2023-02-11T20:28:42.917Z,5.24
2023-02-11T20:33:44.794Z,5.21
2023-02-11T20:38:47.244Z,5.24
2023-02-11T20:43:49.764Z,5.23
2023-02-11T20:48:51.133Z,5.27
2023-02-11T20:53:53.869Z,5.28
2023-02-11T20:58:54.624Z,5.27
2023-02-11T21:03:58.099Z,5.30
2023-02-11T21:09:00.433Z,5.30
2023-02-11T21:14:03.029Z,5.29
2023-02-11T21:19:04.016Z,5.31
2023-02-11T21:24:07.322Z,5.37
2023-02-11T21:29:09.392Z,5.39
2023-02-11T21:34:11.590Z,5.43
2023-02-11T21:39:15.202Z,5.47
2023-02-11T21:44:16.019Z,5.48
2023-02-11T21:49:16.782Z,5.49
2023-02-11T21:54:18.883Z,5.51
2023-02-11T21:59:19.672Z,5.50
2023-02-11T22:04:20.423Z,5.52
2023-02-11T22:09:22.501Z,5.53
2023-02-11T22:14:23.268Z,5.49
2023-02-11T22:19:25.037Z,5.50
2023-02-11T22:24:27.185Z,5.50
2023-02-11T22:29:27.884Z,5.41
2023-02-11T22:34:28.547Z,5.49
2023-02-11T22:39:31.130Z,5.53
2023-02-11T22:44:31.829Z,5.58
2023-02-11T22:49:33.288Z,5.62
2023-02-11T22:54:36.141Z,5.63
2023-02-11T22:59:36.862Z,5.59
2023-02-11T23:04:37.586Z,5.61
2023-02-11T23:09:39.628Z,5.63
2023-02-11T23:14:40.286Z,5.64
2023-02-11T23:19:41.007Z,5.67
2023-02-11T23:24:43.172Z,5.67
2023-02-11T23:29:43.902Z,5.68
2023-02-11T23:34:44.817Z,5.71
2023-02-11T23:39:46.858Z,5.75
2023-02-11T23:44:47.740Z,5.70
2023-02-11T23:49:48.436Z,5.73
2023-02-11T23:54:50.447Z,5.78
2023-02-11T23:59:51.283Z,5.79
